Time,TemperatureF,DewpointF,PressureIn,WindDirection,WindDirectionDegrees,WindSpeedMPH,WindSpeedGustMPH,Humidity,HourlyPrecipIn,Conditions,Clouds,dailyrainin,SolarRadiationWatts/m^2,SoftwareType,DateUTC
2013-08-07 00:22:00,51.0,37.0,-100.00,NW,318,4.0,11.0,58,0.00,,,0.01,0.000000,,2013-08-07 06:22:00,
2013-08-07 00:32:00,51.0,37.0,-100.00,NW,318,4.0,11.0,58,0.00,,,0.01,0.000000,,2013-08-07 06:32:00,
2013-08-07 00:43:00,51.0,37.0,-100.00,NW,318,4.0,11.0,58,0.00,,,0.01,0.000000,,2013-08-07 06:43:00,
2013-08-07 00:52:00,51.0,37.0,-100.00,NW,318,4.0,11.0,58,0.00,,,0.01,0.000000,,2013-08-07 06:52:00,
2013-08-07 01:22:00,49.0,38.0,-100.00,NNW,348,3.0,8.0,66,0.00,,,0.01,0.000000,,2013-08-07 07:22:00,
2013-08-07 01:33:00,49.0,38.0,-100.00,NNW,348,3.0,8.0,66,0.00,,,0.01,0.000000,,2013-08-07 07:33:00,
2013-08-07 01:43:00,49.0,38.0,-100.00,NNW,348,3.0,8.0,66,0.00,,,0.01,0.000000,,2013-08-07 07:43:00,
2013-08-07 01:52:00,49.0,38.0,-100.00,NNW,348,3.0,8.0,66,0.00,,,0.01,0.000000,,2013-08-07 07:52:00,
2013-08-07 02:22:00,48.0,39.0,-100.00,WSW,249,3.0,5.0,70,0.00,,,0.01,0.000000,,2013-08-07 08:22:00,
2013-08-07 02:32:00,48.0,39.0,-100.00,WSW,249,3.0,5.0,70,0.00,,,0.01,0.000000,,2013-08-07 08:32:00,
2013-08-07 02:44:00,48.0,39.0,-100.00,WSW,249,3.0,5.0,70,0.00,,,0.01,0.000000,,2013-08-07 08:44:00,
2013-08-07 02:52:00,48.0,39.0,-100.00,WSW,249,3.0,5.0,70,0.00,,,0.01,0.000000,,2013-08-07 08:52:00,
2013-08-07 03:22:00,48.0,40.0,-100.00,SW,222,3.0,7.0,73,0.00,,,0.01,0.000000,,2013-08-07 09:22:00,
2013-08-07 03:32:00,48.0,40.0,-100.00,SW,222,3.0,7.0,73,0.00,,,0.01,0.000000,,2013-08-07 09:32:00,
2013-08-07 03:43:00,48.0,40.0,-100.00,SW,222,3.0,7.0,73,0.00,,,0.01,0.000000,,2013-08-07 09:43:00,
2013-08-07 03:54:00,48.0,40.0,-100.00,SW,222,3.0,7.0,73,0.00,,,0.01,0.000000,,2013-08-07 09:54:00,
2013-08-07 04:22:00,47.0,39.0,-100.00,NNW,327,3.0,5.0,73,0.00,,,0.01,0.000000,,2013-08-07 10:22:00,
2013-08-07 04:32:00,47.0,39.0,-100.00,NNW,327,3.0,5.0,73,0.00,,,0.01,0.000000,,2013-08-07 10:32:00,
2013-08-07 04:43:00,47.0,39.0,-100.00,NNW,327,3.0,5.0,73,0.00,,,0.01,0.000000,,2013-08-07 10:43:00,
2013-08-07 04:52:00,47.0,39.0,-100.00,NNW,327,3.0,5.0,73,0.00,,,0.01,0.000000,,2013-08-07 10:52:00,
2013-08-07 05:22:00,49.0,36.0,-100.00,NW,319,4.0,9.0,60,0.00,,,0.01,0.000000,,2013-08-07 11:22:00,
2013-08-07 05:32:00,49.0,36.0,-100.00,NW,319,4.0,9.0,60,0.00,,,0.01,0.000000,,2013-08-07 11:32:00,
2013-08-07 05:43:00,49.0,36.0,-100.00,NW,319,4.0,9.0,60,0.00,,,0.01,0.000000,,2013-08-07 11:43:00,
2013-08-07 05:52:00,49.0,36.0,-100.00,NW,319,4.0,9.0,60,0.00,,,0.01,0.000000,,2013-08-07 11:52:00,
2013-08-07 06:22:00,47.0,36.0,-100.00,West,281,2.0,5.0,66,0.00,,,0.01,0.000000,,2013-08-07 12:22:00,
2013-08-07 06:32:00,47.0,36.0,-100.00,West,281,2.0,5.0,66,0.00,,,0.01,0.000000,,2013-08-07 12:32:00,
2013-08-07 06:43:00,47.0,36.0,-100.00,West,281,2.0,5.0,66,0.00,,,0.01,0.000000,,2013-08-07 12:43:00,
2013-08-07 06:52:00,47.0,36.0,-100.00,West,281,2.0,5.0,66,0.00,,,0.01,0.000000,,2013-08-07 12:52:00,
2013-08-07 07:22:00,48.0,36.0,-100.00,NNW,335,2.0,3.0,64,0.00,,,0.01,5.000000,,2013-08-07 13:22:00,
2013-08-07 07:32:00,48.0,36.0,-100.00,NNW,335,2.0,3.0,64,0.00,,,0.01,5.000000,,2013-08-07 13:32:00,
2013-08-07 07:44:00,48.0,36.0,-100.00,NNW,335,2.0,3.0,64,0.00,,,0.01,5.000000,,2013-08-07 13:44:00,
2013-08-07 07:53:00,48.0,36.0,-100.00,NNW,335,2.0,3.0,64,0.00,,,0.01,5.000000,,2013-08-07 13:53:00,
2013-08-07 08:22:00,49.0,38.0,-100.00,SW,227,3.0,5.0,66,0.00,,,0.01,13.000000,,2013-08-07 14:22:00,
2013-08-07 08:33:00,49.0,38.0,-100.00,SW,227,3.0,5.0,66,0.00,,,0.01,13.000000,,2013-08-07 14:33:00,
2013-08-07 08:43:00,49.0,38.0,-100.00,SW,227,3.0,5.0,66,0.00,,,0.01,13.000000,,2013-08-07 14:43:00,
2013-08-07 08:52:00,49.0,38.0,-100.00,SW,227,3.0,5.0,66,0.00,,,0.01,13.000000,,2013-08-07 14:52:00,
2013-08-07 09:22:00,47.0,45.0,-100.00,NW,312,3.0,8.0,92,0.09,,,0.10,25.000000,,2013-08-07 15:22:00,
2013-08-07 09:33:00,47.0,45.0,-100.00,NW,312,3.0,8.0,92,0.09,,,0.10,25.000000,,2013-08-07 15:33:00,
2013-08-07 09:43:00,47.0,45.0,-100.00,NW,312,3.0,8.0,92,0.09,,,0.10,25.000000,,2013-08-07 15:43:00,
2013-08-07 09:53:00,47.0,45.0,-100.00,NW,312,3.0,8.0,92,0.09,,,0.10,25.000000,,2013-08-07 15:53:00,
2013-08-07 10:22:00,46.0,44.0,-100.00,NW,325,9.0,15.0,92,0.09,,,0.19,65.000000,,2013-08-07 16:22:00,
2013-08-07 10:33:00,46.0,44.0,-100.00,NW,325,9.0,15.0,92,0.09,,,0.19,65.000000,,2013-08-07 16:33:00,
2013-08-07 10:43:00,46.0,44.0,-100.00,NW,325,9.0,15.0,92,0.09,,,0.19,65.000000,,2013-08-07 16:43:00,
2013-08-07 10:52:00,46.0,44.0,-100.00,NW,325,9.0,15.0,92,0.09,,,0.19,65.000000,,2013-08-07 16:52:00,
2013-08-07 11:22:00,47.0,44.0,-100.00,NW,318,9.0,14.0,88,0.04,,,0.23,125.000000,,2013-08-07 17:22:00,
2013-08-07 11:33:00,47.0,44.0,-100.00,NW,318,9.0,14.0,88,0.04,,,0.23,125.000000,,2013-08-07 17:33:00,
2013-08-07 11:43:00,47.0,44.0,-100.00,NW,318,9.0,14.0,88,0.04,,,0.23,125.000000,,2013-08-07 17:43:00,
2013-08-07 11:52:00,47.0,44.0,-100.00,NW,318,9.0,14.0,88,0.04,,,0.23,125.000000,,2013-08-07 17:52:00,
2013-08-07 12:22:00,46.0,43.0,-100.00,NW,322,9.0,17.0,88,0.06,,,0.29,131.000000,,2013-08-07 18:22:00,
2013-08-07 12:32:00,46.0,43.0,-100.00,NW,322,9.0,17.0,88,0.06,,,0.29,131.000000,,2013-08-07 18:32:00,
2013-08-07 12:43:00,46.0,43.0,-100.00,NW,322,9.0,17.0,88,0.06,,,0.29,131.000000,,2013-08-07 18:43:00,
2013-08-07 12:52:00,46.0,43.0,-100.00,NW,322,9.0,17.0,88,0.06,,,0.29,131.000000,,2013-08-07 18:52:00,
2013-08-07 13:22:00,46.0,42.0,-100.00,NW,306,8.0,14.0,86,0.04,,,0.33,139.000000,,2013-08-07 19:22:00,
2013-08-07 13:32:00,46.0,42.0,-100.00,NW,306,8.0,14.0,86,0.04,,,0.33,139.000000,,2013-08-07 19:32:00,
2013-08-07 13:44:00,46.0,42.0,-100.00,NW,306,8.0,14.0,86,0.04,,,0.33,139.000000,,2013-08-07 19:44:00,
2013-08-07 13:52:00,46.0,42.0,-100.00,NW,306,8.0,14.0,86,0.04,,,0.33,139.000000,,2013-08-07 19:52:00,
2013-08-07 14:32:00,47.0,42.0,-100.00,NW,311,7.0,15.0,84,0.04,,,0.37,141.000000,,2013-08-07 20:32:00,
2013-08-07 14:43:00,47.0,42.0,-100.00,NW,311,7.0,15.0,84,0.04,,,0.37,141.000000,,2013-08-07 20:43:00,
2013-08-07 14:52:00,47.0,42.0,-100.00,NW,311,7.0,15.0,84,0.04,,,0.37,141.000000,,2013-08-07 20:52:00,
2013-08-07 15:22:00,50.0,43.0,-100.00,North,355,7.0,14.0,76,0.00,,,0.37,337.000000,,2013-08-07 21:22:00,
2013-08-07 15:32:00,50.0,43.0,-100.00,North,355,7.0,14.0,76,0.00,,,0.37,337.000000,,2013-08-07 21:32:00,
2013-08-07 15:43:00,50.0,43.0,-100.00,North,355,7.0,14.0,76,0.00,,,0.37,337.000000,,2013-08-07 21:43:00,
2013-08-07 15:52:00,50.0,43.0,-100.00,North,355,7.0,14.0,76,0.00,,,0.37,337.000000,,2013-08-07 21:52:00,
2013-08-07 16:32:00,58.0,44.0,-100.00,North,359,4.0,11.0,59,0.00,,,0.37,546.000000,,2013-08-07 22:32:00,
2013-08-07 16:43:00,58.0,44.0,-100.00,North,359,4.0,11.0,59,0.00,,,0.37,546.000000,,2013-08-07 22:43:00,
2013-08-07 16:52:00,58.0,44.0,-100.00,North,359,4.0,11.0,59,0.00,,,0.37,546.000000,,2013-08-07 22:52:00,
2013-08-07 17:22:00,60.0,41.0,-100.00,NE,37,4.0,10.0,49,0.00,,,0.37,650.000000,,2013-08-07 23:22:00,
2013-08-07 17:32:00,60.0,41.0,-100.00,NE,37,4.0,10.0,49,0.00,,,0.37,650.000000,,2013-08-07 23:32:00,
2013-08-07 17:43:00,60.0,41.0,-100.00,NE,37,4.0,10.0,49,0.00,,,0.37,650.000000,,2013-08-07 23:43:00,
2013-08-07 17:52:00,60.0,41.0,-100.00,NE,37,4.0,10.0,49,0.00,,,0.37,650.000000,,2013-08-07 23:52:00,
2013-08-07 18:22:00,59.0,38.0,-100.00,NNE,31,4.0,11.0,46,0.01,,,0.38,422.000000,,2013-08-08 00:22:00,
2013-08-07 18:32:00,59.0,38.0,-100.00,NNE,31,4.0,11.0,46,0.01,,,0.38,422.000000,,2013-08-08 00:32:00,
2013-08-07 18:42:00,59.0,38.0,-100.00,NNE,31,4.0,11.0,46,0.01,,,0.38,422.000000,,2013-08-08 00:42:00,
2013-08-07 18:52:00,59.0,38.0,-100.00,NNE,31,4.0,11.0,46,0.01,,,0.38,422.000000,,2013-08-08 00:52:00,
2013-08-07 19:22:00,58.0,41.0,-100.00,SE,145,6.0,10.0,53,0.00,,,0.38,204.000000,,2013-08-08 01:22:00,
2013-08-07 19:32:00,58.0,41.0,-100.00,SE,145,6.0,10.0,53,0.00,,,0.38,204.000000,,2013-08-08 01:32:00,
2013-08-07 19:43:00,58.0,41.0,-100.00,SE,145,6.0,10.0,53,0.00,,,0.38,204.000000,,2013-08-08 01:43:00,
2013-08-07 19:52:00,58.0,41.0,-100.00,SE,145,6.0,10.0,53,0.00,,,0.38,204.000000,,2013-08-08 01:52:00,
2013-08-07 20:22:00,52.0,42.0,-100.00,WSW,248,3.0,8.0,68,0.00,,,0.37,48.000000,,2013-08-08 02:22:00,
2013-08-07 20:32:00,52.0,42.0,-100.00,WSW,248,3.0,8.0,68,0.00,,,0.37,48.000000,,2013-08-08 02:32:00,
2013-08-07 20:42:00,52.0,42.0,-100.00,WSW,248,3.0,8.0,68,0.00,,,0.37,48.000000,,2013-08-08 02:42:00,
2013-08-07 20:52:00,52.0,42.0,-100.00,WSW,248,3.0,8.0,68,0.00,,,0.37,48.000000,,2013-08-08 02:52:00,
2013-08-07 21:22:00,50.0,41.0,-100.00,West,268,6.0,8.0,70,0.00,,,0.37,1.000000,,2013-08-08 03:22:00,
2013-08-07 21:32:00,50.0,41.0,-100.00,West,268,6.0,8.0,70,0.00,,,0.37,1.000000,,2013-08-08 03:32:00,
2013-08-07 21:43:00,50.0,41.0,-100.00,West,268,6.0,8.0,70,0.00,,,0.37,1.000000,,2013-08-08 03:43:00,
2013-08-07 21:52:00,50.0,41.0,-100.00,West,268,6.0,8.0,70,0.00,,,0.37,1.000000,,2013-08-08 03:52:00,
2013-08-07 22:22:00,51.0,39.0,-100.00,WNW,297,5.0,9.0,64,0.00,,,0.37,0.000000,,2013-08-08 04:22:00,
2013-08-07 22:33:00,51.0,39.0,-100.00,WNW,297,5.0,9.0,64,0.00,,,0.37,0.000000,,2013-08-08 04:33:00,
2013-08-07 22:43:00,51.0,39.0,-100.00,WNW,297,5.0,9.0,64,0.00,,,0.37,0.000000,,2013-08-08 04:43:00,
2013-08-07 22:53:00,51.0,39.0,-100.00,WNW,297,5.0,9.0,64,0.00,,,0.37,0.000000,,2013-08-08 04:53:00,
2013-08-07 23:22:00,52.0,38.0,-100.00,WNW,298,8.0,12.0,58,0.00,,,0.37,0.000000,,2013-08-08 05:22:00,
2013-08-07 23:33:00,52.0,38.0,-100.00,WNW,298,8.0,12.0,58,0.00,,,0.37,0.000000,,2013-08-08 05:33:00,
2013-08-07 23:43:00,52.0,38.0,-100.00,WNW,298,8.0,12.0,58,0.00,,,0.37,0.000000,,2013-08-08 05:43:00,
2013-08-07 23:52:00,52.0,38.0,-100.00,WNW,298,8.0,12.0,58,0.00,,,0.37,0.000000,,2013-08-08 05:52:00,